Latest Coastal Weather Observations for Hervey Bay

IDQ60701

Issued at 6:32 pm EST Thursday 20 February 2020 (issued every 10 minutes, with the page automatically refreshed every 10 minutes)

About coastal observations | Map of coastal stations | Coastal observations for QLD | Marine services | Other Formats
Station Details ID: 040405 Name: HERVEY BAY AIRPORT Lat: -25.32 Lon: 152.88 Height: 12.98 m
Data from the previous 72 hours. | See also: Recent months at Hervey Bay
Date/Time
EST
Wind Sea
Height
m
Swell Vis
km
Cloud Weather Temp
°C
Press
hPa
Rain since
9am
mm
Dir  Spd
kts
Gust
kts
Height
m
Period
s
Dir
20/06:30pm ESE 9 13 - - - - 10 Clear - 28.2 1008.0 0.0
20/06:00pm ESE 9 13 - - - - 10 - - 28.8 1007.6 0.0
20/05:30pm ESE 9 14 - - - - 10 - - 29.9 1007.1 0.0
20/05:00pm ESE 9 11 - - - - 10 - - 30.8 1006.9 0.0
20/04:30pm ESE 11 14 - - - - 10 - - 31.4 1006.5 0.0
20/04:00pm ESE 11 15 - - - - 10 - - 32.1 1006.0 0.0
20/03:30pm ESE 12 16 - - - - 10 Partly cloudy - 32.8 1005.8 0.0
20/03:00pm E 7 11 - - - - 10 Mostly clear - 33.1 1005.7 0.0
20/02:30pm ENE 9 12 - - - - 10 Partly cloudy - 33.3 1005.9 0.0
20/02:00pm E 8 11 - - - - 10 Partly cloudy - 33.5 1006.0 0.0
20/01:30pm E 9 12 - - - - 10 - - 32.4 1006.3 0.0
20/01:00pm ESE 9 12 - - - - 10 Partly cloudy - 32.1 1006.6 0.0
20/12:30pm E 8 11 - - - - 10 Partly cloudy - 32.4 1006.8 0.0
20/12:00pm E 8 11 - - - - 10 Clear - 32.3 1007.1 0.0
20/11:30am SE 6 10 - - - - 10 Partly cloudy - 31.4 1007.5 0.0
20/11:00am SE 4 6 - - - - 10 Partly cloudy - 31.3 1007.7 0.0
20/10:30am SW 5 8 - - - - 10 Partly cloudy - 31.2 1007.9 0.0
20/10:00am S 4 7 - - - - 10 Partly cloudy - 30.7 1008.0 0.0
20/09:30am SW 6 9 - - - - 10 Cloudy - 30.7 1008.0 0.0
20/09:00am NW 9 13 - - - - 10 Partly cloudy - 30.9 1007.9 0.0
20/08:30am NNW 10 14 - - - - 10 - - 29.9 1007.8 0.0
20/08:00am NW 11 16 - - - - 10 - - 29.6 1007.6 0.0
20/07:30am NW 13 18 - - - - 10 Partly cloudy - 28.6 1007.5 0.0
20/07:00am NW 8 14 - - - - 10 Partly cloudy - 28.4 1007.2 0.0
20/06:30am NW 4 6 - - - - 10 - - 26.6 1006.8 0.0
20/06:00am WNW 4 7 - - - - 10 - - 26.1 1006.3 0.0
20/05:30am W 4 5 - - - - 10 - - 26.0 1006.1 0.0
20/05:00am W 5 7 - - - - 10 Partly cloudy - 26.6 1005.8 0.0
20/04:30am NW 8 12 - - - - 10 Partly cloudy - 27.7 1005.5 0.0
20/04:00am NNW 11 15 - - - - 10 Partly cloudy - 28.0 1005.4 0.0
20/03:30am NNW 9 12 - - - - 10 Partly cloudy - 27.9 1005.4 0.0
20/03:00am NNW 9 11 - - - - 10 Mostly clear - 28.0 1005.6 0.0
20/02:30am NNW 8 13 - - - - 10 Partly cloudy - 28.1 1005.8 0.0
20/02:00am N 8 12 - - - - 10 Partly cloudy - 28.2 1006.0 0.0
20/01:30am N 9 12 - - - - 10 Partly cloudy - 28.1 1006.2 0.0
20/01:00am N 9 14 - - - - 10 Partly cloudy - 28.3 1006.5 0.0
20/12:30am N 9 14 - - - - 10 Partly cloudy - 28.2 1006.6 0.0
20/12:00am N 9 13 - - - - 10 Partly cloudy - 28.1 1006.6 0.0
 
Date/Time
EST
Wind Sea
Height
m
Swell Vis
km
Cloud Weather Temp
°C
Press
hPa
Rain since
9am
mm
Dir  Spd
kts
Gust
kts
Height
m
Period
s
Dir
19/11:30pm N 7 13 - - - - 10 Partly cloudy - 28.2 1006.6 0.0
19/11:00pm N 9 14 - - - - 10 - - 28.2 1006.7 0.0
19/10:30pm N 9 14 - - - - 10 - - 28.3 1007.0 0.0
19/10:00pm N 9 13 - - - - 10 - - 28.4 1006.9 0.0
19/09:30pm N 8 11 - - - - 10 - - 28.4 1006.9 0.0
19/09:00pm N 9 13 - - - - 10 - - 28.5 1006.9 0.0
19/08:30pm N 8 12 - - - - 10 - - 28.5 1006.9 0.0
19/08:00pm N 9 13 - - - - 10 - - 28.5 1006.5 0.0
19/07:30pm N 8 11 - - - - 10 - - 28.5 1006.1 0.0
19/07:00pm N 8 11 - - - - 10 - - 28.6 1005.7 0.0
19/06:30pm N 8 12 - - - - 10 - - 28.7 1005.4 0.0
19/06:00pm N 9 13 - - - - 10 - - 29.1 1005.1 0.0
19/05:30pm N 10 14 - - - - 10 - - 29.5 1005.0 0.0
19/05:00pm N 9 14 - - - - 10 - - 30.4 1004.9 0.0
19/04:30pm N 9 15 - - - - 10 - - 30.8 1004.9 0.0
19/04:00pm N 11 16 - - - - 10 - - 30.8 1005.0 0.0
19/03:30pm N 11 17 - - - - 10 - - 30.9 1005.2 0.0
19/03:00pm NNW 12 16 - - - - 10 - - 30.7 1005.4 0.0
19/02:30pm N 11 16 - - - - 10 - - 30.5 1005.3 0.0
19/02:00pm N 11 17 - - - - 10 - - 30.7 1005.7 0.0
19/01:30pm N 11 16 - - - - 10 - - 31.0 1006.2 0.0
19/01:00pm N 10 15 - - - - 10 - - 30.8 1006.4 0.0
19/12:30pm N 11 14 - - - - 10 - - 30.5 1006.9 0.0
19/12:00pm N 9 13 - - - - 10 - - 30.6 1007.3 0.0
19/11:30am NNW 9 13 - - - - 10 Partly cloudy - 30.4 1007.8 0.0
19/11:00am N 8 13 - - - - 10 - - 30.6 1008.0 0.0
19/10:30am N 8 12 - - - - 10 Partly cloudy - 30.1 1008.2 0.0
19/10:00am N 8 12 - - - - 10 Partly cloudy - 29.9 1008.4 0.0
19/09:30am NNE 7 10 - - - - 10 Partly cloudy - 29.6 1008.5 0.0
19/09:00am N 5 8 - - - - 10 Cloudy - 29.3 1008.5 0.0
19/08:30am NNE 6 9 - - - - 10 Partly cloudy - 28.6 1008.4 0.0
19/08:00am ENE 5 9 - - - - 10 Partly cloudy - 28.9 1008.5 0.0
19/07:30am SSW 4 5 - - - - 10 Partly cloudy - 26.6 1008.4 0.0
19/07:00am SSW 5 6 - - - - 10 - - 26.0 1008.1 0.0
19/06:30am S 4 5 - - - - 10 Partly cloudy - 24.2 1007.4 0.0
19/06:00am SW 3 4 - - - - 10 Partly cloudy - 24.0 1007.0 0.0
19/05:30am CALM 0 0 - - - - 10 Partly cloudy - 23.3 1006.9 0.0
19/05:00am NNE 2 4 - - - - 10 - - 23.2 1006.4 0.0
19/04:30am CALM 0 0 - - - - 10 - - 23.3 1006.4 0.0
19/04:00am CALM 0 0 - - - - 10 - - 23.2 1006.7 0.0
19/03:30am CALM 0 0 - - - - 10 - - 23.3 1006.8 0.0
19/03:00am CALM 0 0 - - - - 10 - - 23.7 1007.1 0.0
19/02:30am CALM 0 3 - - - - 10 - - 23.8 1007.6 0.0
19/02:00am SW 4 5 - - - - 10 - - 24.0 1008.0 0.0
19/01:30am CALM 0 0 - - - - 10 Partly cloudy - 24.4 1008.0 0.0
19/01:00am CALM 0 0 - - - - 10 Partly cloudy - 24.9 1008.3 0.0
19/12:30am NE 3 5 - - - - 10 - - 26.1 1008.5 0.0
19/12:00am NE 5 8 - - - - 10 - - 26.4 1008.6 0.0
 
Date/Time
EST
Wind Sea
Height
m
Swell Vis
km
Cloud Weather Temp
°C
Press
hPa
Rain since
9am
mm
Dir  Spd
kts
Gust
kts
Height
m
Period
s
Dir
18/11:30pm NE 6 7 - - - - 10 - - 26.5 1009.0 0.0
18/11:00pm NE 4 7 - - - - 10 - - 26.6 1009.6 0.0
18/10:30pm NE 6 7 - - - - 10 - - 26.9 1009.5 0.0
18/10:00pm NE 5 7 - - - - 10 - - 26.9 1009.5 0.0
18/09:30pm ENE 5 7 - - - - 10 - - 26.9 1009.7 0.0
18/09:00pm ENE 7 9 - - - - 10 - - 27.2 1009.6 0.0
18/08:30pm ENE 7 10 - - - - 10 - - 27.3 1009.6 0.0
18/08:00pm ENE 6 9 - - - - 10 - - 27.4 1009.5 0.0
18/07:30pm E 8 10 - - - - 10 Partly cloudy - 27.6 1009.2 0.0
18/07:00pm ENE 8 11 - - - - 10 - - 28.0 1008.8 0.0
18/06:30pm E 7 11 - - - - 10 - - 28.4 1008.4 0.0
18/06:00pm E 9 11 - - - - 10 - - 29.0 1008.1 0.0
18/05:30pm E 10 15 - - - - 10 - - 29.7 1007.8 0.0
18/05:00pm E 11 14 - - - - 10 - - 30.0 1007.7 0.0
18/04:30pm E 11 14 - - - - 10 - - 30.5 1007.9 0.0
18/04:00pm E 12 15 - - - - 10 Partly cloudy - 30.6 1007.9 0.0
18/03:30pm ESE 11 15 - - - - 10 Partly cloudy - 31.1 1007.9 0.0
18/03:00pm ESE 11 15 - - - - 10 - - 31.6 1007.9 0.0
18/02:30pm E 9 12 - - - - 10 - - 31.3 1008.2 0.0
18/02:00pm E 8 15 - - - - 10 - - 31.2 1008.5 0.0
18/01:30pm ENE 7 11 - - - - 10 - - 31.4 1008.7 0.0
18/01:00pm ESE 7 11 - - - - 10 - - 31.4 1009.3 0.0
18/12:30pm ESE 8 12 - - - - 10 - - 31.0 1009.7 0.0
18/12:00pm ESE 8 12 - - - - 10 - - 30.7 1010.0 0.0
18/11:30am E 9 13 - - - - 10 - - 30.3 1010.6 0.0
18/11:00am E 8 12 - - - - 10 - - 30.7 1010.8 0.0
18/10:30am ESE 9 13 - - - - 10 Partly cloudy - 30.1 1011.1 0.0
18/10:00am ESE 8 12 - - - - 10 Partly cloudy - 30.2 1011.1 0.0
18/09:30am SE 7 11 - - - - 10 Partly cloudy - 29.8 1011.0 0.0
18/09:00am SE 7 11 - - - - 10 Mostly clear - 28.9 1011.2 8.2
18/08:30am SSE 5 8 - - - - 10 Partly cloudy - 28.4 1011.0 8.2
18/08:00am S 4 5 - - - - 10 Partly cloudy - 27.2 1010.5 8.2
18/07:30am SSW 7 8 - - - - 10 Partly cloudy - 26.0 1010.6 8.2
18/07:00am SSW 6 7 - - - - 10 Partly cloudy - 25.0 1010.3 8.2
18/06:30am SSW 5 7 - - - - 10 - - 24.7 1009.7 8.2
18/06:00am CALM 0 0 - - - - 10 - - 24.1 1009.3 8.2
18/05:30am CALM 0 0 - - - - 10 - - 24.1 1009.4 8.2
18/05:00am CALM 0 4 - - - - 10 - - 23.9 1009.8 8.2
18/04:30am CALM 0 0 - - - - 10 - - 24.3 1009.9 8.2
18/04:19am CALM 0 0 - - - - 10 Partly cloudy - 24.4 1009.9 8.2
18/04:00am W 3 4 - - - - 10 Partly cloudy - 24.3 1010.0 8.2
18/03:42am CALM 0 0 - - - - 10 Partly cloudy - 24.4 1010.1 8.2
18/03:30am CALM 0 2 - - - - 10 - - 24.6 1010.2 8.2
18/03:00am SSW 3 4 - - - - 10 Cloudy - 24.6 1010.4 8.2
18/02:30am SSE 3 4 - - - - 10 Partly cloudy - 24.9 1010.9 8.2
18/02:00am E 6 9 - - - - 10 Partly cloudy - 25.4 1010.9 8.2
18/01:30am SE 6 9 - - - - 10 Cloudy - 25.0 1010.9 8.2
18/01:00am ESE 8 14 - - - - 10 Partly cloudy - 25.1 1011.1 8.2
18/12:57am ESE 9 14 - - - - 10 Partly cloudy - 25.2 1011.2 8.2
18/12:30am ESE 8 13 - - - - 10 Partly cloudy - 24.9 1011.5 8.2
18/12:00am E 10 13 - - - - 10 Cloudy - 24.7 1011.8 8.2
 
Date/Time
EST
Wind Sea
Height
m
Swell Vis
km
Cloud Weather Temp
°C
Press
hPa
Rain since
9am
mm
Dir  Spd
kts
Gust
kts
Height
m
Period
s
Dir
17/11:35pm SE 7 13 - - - - 10 Partly cloudy - 25.1 1012.2 8.2
17/11:30pm SE 7 11 - - - - 10 Partly cloudy - 25.1 1012.2 8.2
17/11:00pm SE 5 7 - - - - 10 Partly cloudy - 24.8 1012.1 8.2
17/10:30pm SE 4 6 - - - - 10 Partly cloudy - 24.5 1012.4 8.0
17/10:26pm SSE 5 7 - - - - 10 Partly cloudy - 24.6 1012.5 8.0
17/10:08pm SSE 9 15 - - - - 2 Partly cloudy - 24.3 1012.5 7.4
17/10:00pm SSE 8 15 - - - - 4 Partly cloudy - 24.5 1012.8 3.6
17/09:58pm SSE 7 14 - - - - 5 Partly cloudy - 24.7 1012.8 2.4
17/09:54pm SSE 6 9 - - - - 10 Partly cloudy - 25.1 1012.8 1.4
17/09:47pm SSE 6 7 - - - - 10 Partly cloudy - 25.1 1012.8 1.4
17/09:30pm SE 9 13 - - - - 5 Partly cloudy - 25.0 1012.7 0.8
17/09:00pm SSE 7 11 - - - - 10 Mostly cloudy - 26.2 1012.4 0.0
17/08:30pm SSE 6 9 - - - - 10 Partly cloudy - 26.3 1012.2 0.0
17/08:00pm SSE 6 10 - - - - 10 - - 26.6 1011.8 0.0
17/07:30pm SSE 6 9 - - - - 10 Partly cloudy - 26.8 1011.3 0.0
17/07:00pm SE 8 12 - - - - 10 Partly cloudy - 27.1 1010.8 0.0

Other formats

Comma delimited format used in spreadsheet applications
http://www.bom.gov.au/fwo/IDQ60701/IDQ60701.95565.axf

JavaScript Object Notation format (JSON) in row-major order
http://www.bom.gov.au/fwo/IDQ60701/IDQ60701.95565.json

Data quality

Most of these data are generated automatically and are frequently updated. Quality checks on data are not normally performed. It is possible for incorrect values to appear. Refer to information at About Latest Weather Observations and please check the disclaimer before using these data.